createdAt,value
2023-05-05T00:02:18.084Z,17.29
2023-05-05T00:04:46.101Z,17.24
2023-05-05T00:07:13.800Z,17.24
2023-05-05T00:09:41.662Z,17.30
2023-05-05T00:12:09.563Z,17.29
2023-05-05T00:14:37.331Z,17.27
2023-05-05T00:17:05.410Z,17.23
2023-05-05T00:19:33.267Z,17.15
2023-05-05T00:22:01.138Z,17.03
2023-05-05T00:24:28.910Z,17.00
2023-05-05T00:26:56.660Z,16.95
2023-05-05T00:29:24.351Z,16.89
2023-05-05T00:31:53.318Z,16.80
2023-05-05T00:34:21.108Z,16.79
2023-05-05T00:36:49.583Z,16.72
2023-05-05T00:39:17.593Z,16.65
2023-05-05T00:41:45.329Z,16.62
2023-05-05T00:44:13.583Z,16.57
2023-05-05T00:46:43.395Z,16.47
2023-05-05T00:49:12.323Z,16.42
2023-05-05T00:51:40.163Z,16.37
2023-05-05T00:54:07.917Z,16.31
2023-05-05T00:56:36.787Z,16.27
2023-05-05T00:59:04.516Z,16.20
2023-05-05T01:01:32.774Z,16.16
2023-05-05T01:04:00.815Z,16.16
2023-05-05T01:06:53.314Z,16.13
2023-05-05T01:09:43.506Z,16.10
2023-05-05T01:12:24.997Z,16.11
2023-05-05T01:15:27.210Z,16.14
2023-05-05T01:18:23.611Z,16.17
2023-05-05T01:21:01.865Z,16.28
2023-05-05T01:23:29.856Z,16.30
2023-05-05T01:26:21.448Z,16.35
2023-05-05T01:29:24.073Z,16.44
2023-05-05T01:31:57.403Z,16.48
2023-05-05T01:34:50.909Z,16.55
2023-05-05T01:37:32.336Z,16.54
2023-05-05T01:40:08.365Z,16.51
2023-05-05T01:42:41.263Z,16.51
2023-05-05T01:45:12.234Z,16.58
2023-05-05T01:47:42.719Z,16.64
2023-05-05T01:50:11.540Z,16.71
2023-05-05T01:52:41.935Z,16.73
2023-05-05T01:55:13.042Z,16.73
2023-05-05T01:57:44.009Z,16.76
2023-05-05T02:00:12.816Z,16.73
2023-05-05T02:02:49.992Z,16.76
2023-05-05T02:05:21.972Z,16.71
2023-05-05T02:07:52.418Z,16.72
2023-05-05T02:10:20.301Z,16.71
2023-05-05T02:12:50.301Z,16.62
2023-05-05T02:15:20.578Z,16.57
2023-05-05T02:17:54.362Z,16.51
2023-05-05T02:20:24.567Z,16.45
2023-05-05T02:22:52.477Z,16.45
2023-05-05T02:25:20.273Z,16.47
2023-05-05T02:27:51.195Z,16.45
2023-05-05T02:30:21.757Z,16.41
2023-05-05T02:32:57.045Z,16.28
2023-05-05T02:35:36.866Z,16.27
2023-05-05T02:38:13.350Z,16.23
2023-05-05T02:40:47.640Z,16.17
2023-05-05T02:43:22.525Z,16.16
2023-05-05T02:45:50.654Z,16.14
2023-05-05T02:48:19.747Z,16.13
2023-05-05T02:50:47.990Z,16.10
2023-05-05T02:53:27.126Z,16.09
2023-05-05T02:56:08.354Z,16.07
2023-05-05T02:59:16.064Z,16.00
2023-05-05T03:02:03.347Z,15.94
2023-05-05T03:04:51.761Z,15.90
2023-05-05T03:07:34.933Z,15.83
2023-05-05T03:10:17.797Z,15.81
2023-05-05T03:12:53.050Z,15.74
2023-05-05T03:15:31.730Z,15.81
2023-05-05T03:18:04.078Z,15.86
2023-05-05T03:20:32.893Z,15.85
2023-05-05T03:23:06.791Z,15.83
2023-05-05T03:25:51.634Z,15.79
2023-05-05T03:28:35.627Z,15.70
2023-05-05T03:31:10.215Z,15.63
2023-05-05T03:33:39.511Z,15.58
2023-05-05T03:36:07.766Z,15.53
2023-05-05T03:38:36.097Z,15.45
2023-05-05T03:41:04.939Z,15.36
2023-05-05T03:43:33.606Z,15.30
2023-05-05T03:46:01.507Z,15.21
2023-05-05T03:48:29.746Z,15.17
2023-05-05T03:50:57.592Z,15.12
2023-05-05T03:53:27.959Z,15.14
2023-05-05T03:55:56.242Z,15.15
2023-05-05T03:58:23.999Z,15.12
2023-05-05T04:00:51.913Z,15.05
2023-05-05T04:03:21.276Z,15.05
2023-05-05T04:05:49.705Z,15.04
2023-05-05T04:08:17.657Z,15.04
2023-05-05T04:10:45.998Z,15.07
2023-05-05T04:13:14.399Z,15.07
2023-05-05T04:15:46.634Z,15.01
2023-05-05T04:18:15.829Z,15.00
2023-05-05T04:20:44.075Z,14.93
2023-05-05T04:23:12.866Z,14.88
2023-05-05T04:25:41.636Z,14.84
2023-05-05T04:28:10.827Z,14.80
2023-05-05T04:30:39.257Z,14.77
2023-05-05T04:33:07.491Z,14.75
2023-05-05T04:35:35.352Z,14.73
2023-05-05T04:38:03.409Z,14.73
2023-05-05T04:40:31.903Z,14.75
2023-05-05T04:43:00.174Z,14.80
2023-05-05T04:45:28.632Z,14.77
2023-05-05T04:47:56.740Z,14.79
2023-05-05T04:50:24.469Z,14.76
2023-05-05T04:52:52.923Z,14.79
2023-05-05T04:55:21.564Z,14.76
2023-05-05T04:57:49.647Z,14.77
2023-05-05T05:00:17.897Z,14.80
2023-05-05T05:02:45.796Z,14.86
2023-05-05T05:05:13.708Z,14.93
2023-05-05T05:07:41.478Z,14.97
2023-05-05T05:10:09.690Z,15.00
2023-05-05T05:12:37.910Z,15.03
2023-05-05T05:15:06.400Z,15.08
2023-05-05T05:17:35.015Z,15.11
2023-05-05T05:20:05.023Z,15.20
2023-05-05T05:22:35.300Z,15.27
2023-05-05T05:25:03.950Z,15.38
2023-05-05T05:27:32.064Z,15.44
2023-05-05T05:29:59.893Z,15.49
2023-05-05T05:32:28.635Z,15.59
2023-05-05T05:34:56.780Z,15.72
2023-05-05T05:37:24.729Z,15.78
2023-05-05T05:39:52.823Z,15.83
2023-05-05T05:42:22.801Z,16.00
2023-05-05T05:44:50.640Z,16.13
2023-05-05T05:47:18.713Z,16.25
2023-05-05T05:49:47.027Z,16.42
2023-05-05T05:52:14.978Z,16.50
2023-05-05T05:54:43.134Z,16.64
2023-05-05T05:57:12.080Z,16.75
2023-05-05T05:59:40.087Z,16.88
2023-05-05T06:02:07.964Z,16.96
2023-05-05T06:04:36.138Z,17.02
2023-05-05T06:07:04.084Z,17.10
2023-05-05T06:09:32.264Z,17.22
2023-05-05T06:12:02.023Z,17.31
2023-05-05T06:14:30.169Z,17.40
2023-05-05T06:16:58.149Z,17.61
2023-05-05T06:19:28.147Z,17.73
2023-05-05T06:21:56.018Z,17.91
2023-05-05T06:24:23.773Z,18.09
2023-05-05T06:26:51.755Z,18.25
2023-05-05T06:29:19.667Z,18.35
2023-05-05T06:31:47.475Z,18.42
2023-05-05T06:34:15.215Z,18.57
2023-05-05T06:36:43.100Z,18.57
2023-05-05T06:39:10.784Z,18.57
2023-05-05T06:41:38.414Z,18.54
2023-05-05T06:44:06.282Z,18.43
2023-05-05T06:46:34.475Z,18.32
2023-05-05T06:49:02.443Z,18.30
2023-05-05T06:51:31.727Z,18.44
2023-05-05T06:53:59.548Z,18.64
2023-05-05T06:56:27.713Z,18.80
2023-05-05T06:58:55.656Z,18.92
2023-05-05T07:01:23.603Z,18.92
2023-05-05T07:03:52.447Z,19.08
2023-05-05T07:06:20.541Z,19.19
2023-05-05T07:08:48.248Z,19.22
2023-05-05T07:11:16.174Z,19.41
2023-05-05T07:13:44.096Z,19.38
2023-05-05T07:16:11.748Z,19.28
2023-05-05T07:18:39.479Z,19.28
2023-05-05T07:21:07.524Z,19.36
2023-05-05T07:23:37.399Z,19.36
2023-05-05T07:26:05.295Z,19.45
2023-05-05T07:28:33.321Z,19.60
2023-05-05T07:31:01.543Z,19.83
2023-05-05T07:33:29.275Z,19.74
2023-05-05T07:35:57.073Z,19.71
2023-05-05T07:38:25.802Z,19.70
2023-05-05T07:40:53.468Z,19.71
2023-05-05T07:43:21.354Z,19.73
2023-05-05T07:45:49.091Z,19.86
2023-05-05T07:48:16.930Z,20.06
2023-05-05T07:50:44.593Z,20.21
2023-05-05T07:53:14.949Z,20.47
2023-05-05T07:55:43.120Z,20.73
2023-05-05T07:58:11.258Z,20.82
2023-05-05T08:00:39.889Z,20.99
2023-05-05T08:03:11.290Z,21.02
2023-05-05T08:05:39.738Z,21.04
2023-05-05T08:08:07.844Z,21.24
2023-05-05T08:10:35.651Z,21.33
2023-05-05T08:13:03.730Z,21.16
2023-05-05T08:15:31.900Z,21.03
2023-05-05T08:18:00.010Z,21.10
2023-05-05T08:20:30.096Z,21.33
2023-05-05T08:22:58.172Z,21.50
2023-05-05T08:25:27.165Z,21.58
2023-05-05T08:27:55.116Z,21.53
2023-05-05T08:30:23.016Z,21.51
2023-05-05T08:32:50.808Z,21.51
2023-05-05T08:35:18.870Z,21.54
2023-05-05T08:37:46.560Z,21.47
2023-05-05T08:40:15.166Z,21.54
2023-05-05T08:42:45.688Z,21.48
2023-05-05T08:45:13.556Z,21.55
2023-05-05T08:47:43.435Z,21.77
2023-05-05T08:50:12.173Z,22.12
2023-05-05T08:52:44.188Z,22.41
2023-05-05T08:55:28.263Z,22.63
2023-05-05T08:57:57.811Z,22.77
2023-05-05T09:00:27.268Z,22.86
2023-05-05T09:03:00.443Z,22.87
2023-05-05T09:05:28.473Z,22.80
2023-05-05T09:07:56.446Z,22.59
2023-05-05T09:10:26.094Z,22.49
2023-05-05T09:12:53.877Z,22.40
2023-05-05T09:15:21.500Z,22.41
2023-05-05T09:17:49.413Z,22.54
2023-05-05T09:20:17.101Z,22.60
2023-05-05T09:22:47.293Z,22.77
2023-05-05T09:25:17.189Z,22.99
2023-05-05T09:27:47.157Z,23.16
2023-05-05T09:30:27.043Z,23.14
2023-05-05T09:32:55.696Z,23.02
2023-05-05T09:35:24.253Z,23.01
2023-05-05T09:37:51.997Z,23.07
2023-05-05T09:40:21.060Z,22.95
2023-05-05T09:42:48.875Z,23.01
2023-05-05T09:45:19.848Z,23.18
2023-05-05T09:47:49.516Z,23.30
2023-05-05T09:50:19.159Z,23.35
2023-05-05T09:53:02.195Z,23.28
2023-05-05T09:55:33.392Z,23.19
2023-05-05T09:58:19.882Z,22.95
2023-05-05T10:00:47.984Z,22.77
2023-05-05T10:03:16.308Z,22.32
2023-05-05T10:06:01.211Z,22.06
2023-05-05T10:08:34.213Z,21.71
2023-05-05T10:11:07.115Z,21.51
2023-05-05T10:13:41.169Z,21.27
2023-05-05T10:16:12.850Z,21.04
2023-05-05T10:18:47.511Z,20.76
2023-05-05T10:21:22.058Z,20.49
2023-05-05T10:23:58.048Z,20.29
2023-05-05T10:26:32.129Z,19.90
2023-05-05T10:29:02.665Z,19.63
2023-05-05T10:31:44.115Z,19.32
2023-05-05T10:34:36.036Z,19.21
2023-05-05T10:37:05.166Z,19.07
2023-05-05T10:39:35.995Z,18.85
2023-05-05T10:42:03.729Z,18.78
2023-05-05T10:44:33.427Z,18.71
2023-05-05T10:47:03.388Z,18.77
2023-05-05T10:50:04.795Z,18.94
2023-05-05T10:52:58.488Z,18.90
2023-05-05T10:55:29.488Z,19.02
2023-05-05T10:57:57.228Z,19.14
2023-05-05T11:00:40.385Z,19.23
2023-05-05T11:03:21.415Z,19.26
2023-05-05T11:06:13.213Z,19.33
2023-05-05T11:08:43.611Z,19.45
2023-05-05T11:11:13.501Z,19.53
2023-05-05T11:13:42.181Z,19.59
2023-05-05T11:16:46.003Z,19.71
2023-05-05T11:19:42.982Z,19.86
2023-05-05T11:22:11.693Z,19.94
2023-05-05T11:24:42.389Z,20.07
2023-05-05T11:27:11.018Z,20.13
2023-05-05T11:30:08.909Z,20.31
2023-05-05T11:32:37.016Z,20.48
2023-05-05T11:35:06.313Z,20.71
2023-05-05T11:37:37.466Z,21.20
2023-05-05T11:40:24.117Z,21.72
2023-05-05T11:43:05.941Z,21.86
2023-05-05T11:45:34.524Z,22.12
2023-05-05T11:48:24.469Z,22.68
2023-05-05T11:50:52.589Z,23.28
2023-05-05T11:53:21.030Z,23.63
2023-05-05T11:55:48.879Z,23.84
2023-05-05T11:58:20.575Z,23.59
2023-05-05T12:00:48.341Z,23.83
2023-05-05T12:03:16.264Z,23.90
2023-05-05T12:05:44.105Z,24.08
2023-05-05T12:08:12.130Z,24.28
2023-05-05T12:10:40.293Z,24.48
2023-05-05T12:13:21.567Z,24.22
2023-05-05T12:15:49.313Z,23.98
2023-05-05T12:18:21.024Z,23.97
2023-05-05T12:20:48.855Z,23.56
2023-05-05T12:23:16.645Z,23.25
2023-05-05T12:25:45.727Z,23.11
2023-05-05T12:28:13.396Z,23.15
2023-05-05T12:30:41.269Z,23.62
2023-05-05T12:33:09.577Z,23.83
2023-05-05T12:35:38.392Z,23.78
2023-05-05T12:38:06.705Z,24.29
2023-05-05T12:40:55.783Z,24.59
2023-05-05T12:43:24.420Z,25.02
2023-05-05T12:46:19.395Z,25.02
2023-05-05T12:48:59.522Z,25.03
2023-05-05T12:51:27.339Z,25.44
2023-05-05T12:54:07.775Z,25.62
2023-05-05T12:56:40.566Z,25.26
2023-05-05T12:59:09.905Z,25.07
2023-05-05T13:01:49.332Z,24.29
2023-05-05T13:04:18.562Z,24.00
2023-05-05T13:06:48.614Z,23.38
2023-05-05T13:09:30.636Z,23.01
2023-05-05T13:11:58.920Z,22.81
2023-05-05T13:14:26.698Z,22.43
2023-05-05T13:16:54.541Z,21.93
2023-05-05T13:19:24.941Z,21.50
2023-05-05T13:21:58.865Z,20.85
2023-05-05T13:24:42.261Z,20.49
2023-05-05T13:27:14.837Z,19.93
2023-05-05T13:29:43.713Z,19.52
2023-05-05T13:32:11.602Z,19.38
2023-05-05T13:34:39.602Z,19.22
2023-05-05T13:37:07.525Z,19.05
2023-05-05T13:39:35.387Z,19.08
2023-05-05T13:42:03.281Z,19.10
2023-05-05T13:44:31.679Z,19.04
2023-05-05T13:46:59.652Z,19.16
2023-05-05T13:49:27.372Z,19.26
2023-05-05T13:51:56.353Z,19.14
2023-05-05T13:54:24.084Z,18.88
2023-05-05T13:56:52.202Z,18.70
2023-05-05T13:59:19.901Z,18.56
2023-05-05T14:01:47.576Z,18.50
2023-05-05T14:04:15.443Z,18.59
2023-05-05T14:06:43.375Z,18.63
2023-05-05T14:09:11.276Z,18.49
2023-05-05T14:11:38.965Z,18.50
2023-05-05T14:14:07.011Z,18.65
2023-05-05T14:16:34.897Z,19.00
2023-05-05T14:19:02.964Z,20.13
2023-05-05T14:21:32.587Z,20.39
2023-05-05T14:24:00.518Z,20.96
2023-05-05T14:26:29.352Z,21.16
2023-05-05T14:28:57.018Z,21.59
2023-05-05T14:31:24.910Z,21.38
2023-05-05T14:33:53.540Z,20.90
2023-05-05T14:36:21.166Z,20.71
2023-05-05T14:38:48.906Z,20.75
2023-05-05T14:41:16.896Z,21.04
2023-05-05T14:43:44.568Z,21.16
2023-05-05T14:46:12.365Z,21.19
2023-05-05T14:48:40.294Z,21.24
2023-05-05T14:51:07.986Z,21.82
2023-05-05T14:53:36.050Z,21.95
2023-05-05T14:56:03.944Z,21.48
2023-05-05T14:58:32.005Z,21.17
2023-05-05T15:01:00.682Z,21.43
2023-05-05T15:03:28.623Z,21.59
2023-05-05T15:05:56.748Z,22.08
2023-05-05T15:08:24.564Z,21.95
2023-05-05T15:10:52.321Z,21.68
2023-05-05T15:13:20.091Z,21.23
2023-05-05T15:15:48.996Z,20.90
2023-05-05T15:18:16.946Z,21.20
2023-05-05T15:20:44.962Z,21.40
2023-05-05T15:23:12.838Z,21.61
2023-05-05T15:25:40.668Z,21.61
2023-05-05T15:28:08.347Z,21.61
2023-05-05T15:30:35.996Z,21.48
2023-05-05T15:33:03.947Z,21.38
2023-05-05T15:35:31.869Z,20.96
2023-05-05T15:37:59.562Z,20.76
2023-05-05T15:40:27.537Z,20.83
2023-05-05T15:42:55.643Z,21.02
2023-05-05T15:45:23.385Z,20.95
2023-05-05T15:47:51.247Z,20.95
2023-05-05T15:50:19.200Z,21.11
2023-05-05T15:52:49.347Z,21.04
2023-05-05T15:55:17.813Z,21.13
2023-05-05T15:57:45.501Z,20.97
2023-05-05T16:00:14.003Z,20.79
2023-05-05T16:02:41.960Z,20.61
2023-05-05T16:05:10.333Z,20.34
2023-05-05T16:07:38.251Z,20.20
2023-05-05T16:10:06.540Z,20.16
2023-05-05T16:12:34.153Z,20.06
2023-05-05T16:15:02.165Z,20.17
2023-05-05T16:17:29.951Z,20.17
2023-05-05T16:19:57.584Z,20.18
2023-05-05T16:22:25.271Z,20.37
2023-05-05T16:24:53.007Z,20.22
2023-05-05T16:27:20.759Z,20.13
2023-05-05T16:29:48.525Z,19.90
2023-05-05T16:32:16.308Z,19.81
2023-05-05T16:34:43.962Z,19.81
2023-05-05T16:37:12.760Z,19.77
2023-05-05T16:39:41.326Z,19.63
2023-05-05T16:42:09.130Z,19.52
2023-05-05T16:44:36.821Z,19.31
2023-05-05T16:47:04.878Z,19.18
2023-05-05T16:49:32.861Z,18.98
2023-05-05T16:52:00.845Z,18.91
2023-05-05T16:54:28.746Z,18.80
2023-05-05T16:56:56.921Z,18.75
2023-05-05T16:59:24.564Z,18.44
2023-05-05T17:01:52.527Z,18.19
2023-05-05T17:04:20.246Z,17.92
2023-05-05T17:06:47.887Z,17.81
2023-05-05T17:09:16.056Z,17.77
2023-05-05T17:11:43.881Z,17.51
2023-05-05T17:14:11.659Z,17.33
2023-05-05T17:16:39.539Z,17.07
2023-05-05T17:19:07.139Z,16.86
2023-05-05T17:21:34.805Z,16.72
2023-05-05T17:24:02.613Z,16.54
2023-05-05T17:26:31.745Z,16.50
2023-05-05T17:28:59.534Z,16.37
2023-05-05T17:31:27.392Z,16.28
2023-05-05T17:33:55.106Z,16.14
2023-05-05T17:36:23.097Z,16.09
2023-05-05T17:38:50.877Z,16.10
2023-05-05T17:41:18.612Z,16.06
2023-05-05T17:43:46.362Z,16.09
2023-05-05T17:46:14.500Z,16.06
2023-05-05T17:48:42.368Z,16.03
2023-05-05T17:51:10.209Z,16.09
2023-05-05T17:53:38.614Z,16.21
2023-05-05T17:56:08.674Z,16.14
2023-05-05T17:58:36.955Z,16.03
2023-05-05T18:01:04.844Z,16.03
2023-05-05T18:03:37.270Z,16.02
2023-05-05T18:06:07.002Z,15.94
2023-05-05T18:08:34.660Z,15.81
2023-05-05T18:11:02.401Z,15.78
2023-05-05T18:13:30.230Z,15.78
2023-05-05T18:16:01.182Z,15.67
2023-05-05T18:18:29.634Z,15.61
2023-05-05T18:20:57.971Z,15.48
2023-05-05T18:23:25.733Z,15.48
2023-05-05T18:25:53.522Z,15.41
2023-05-05T18:28:21.648Z,15.34
2023-05-05T18:30:49.558Z,15.34
2023-05-05T18:33:17.884Z,15.30
2023-05-05T18:35:46.236Z,15.30
2023-05-05T18:38:14.158Z,15.24
2023-05-05T18:40:42.052Z,15.20
2023-05-05T18:43:10.394Z,15.18
2023-05-05T18:45:38.236Z,15.14
2023-05-05T18:48:06.539Z,15.07
2023-05-05T18:50:34.378Z,14.96
2023-05-05T18:53:02.867Z,14.94
2023-05-05T18:55:30.668Z,14.94
2023-05-05T18:57:58.566Z,14.96
2023-05-05T19:00:26.313Z,14.88
2023-05-05T19:02:55.048Z,14.87
2023-05-05T19:05:22.912Z,14.87
2023-05-05T19:07:50.625Z,14.79
2023-05-05T19:10:19.207Z,14.67
2023-05-05T19:12:47.297Z,14.66
2023-05-05T19:15:14.972Z,14.57
2023-05-05T19:17:45.388Z,14.52
2023-05-05T19:20:13.254Z,14.50
2023-05-05T19:22:41.050Z,14.52
2023-05-05T19:25:09.579Z,14.50
2023-05-05T19:27:37.632Z,14.49
2023-05-05T19:30:06.483Z,14.52
2023-05-05T19:32:34.351Z,14.47
2023-05-05T19:35:02.739Z,14.45
2023-05-05T19:37:30.672Z,14.38
2023-05-05T19:39:58.633Z,14.28
2023-05-05T19:42:26.495Z,14.19
2023-05-05T19:44:54.190Z,14.12
2023-05-05T19:47:22.199Z,14.09
2023-05-05T19:49:49.957Z,14.08
2023-05-05T19:52:17.963Z,14.05
2023-05-05T19:54:45.633Z,14.08
2023-05-05T19:57:13.777Z,14.04
2023-05-05T19:59:41.897Z,14.02
2023-05-05T20:02:10.274Z,14.02
2023-05-05T20:04:38.576Z,14.01
2023-05-05T20:07:06.260Z,14.01
2023-05-05T20:09:33.950Z,14.05
2023-05-05T20:12:02.240Z,14.08
2023-05-05T20:14:31.372Z,14.01
2023-05-05T20:16:59.108Z,14.01
2023-05-05T20:19:26.773Z,14.00
2023-05-05T20:21:54.492Z,14.00
2023-05-05T20:24:22.516Z,14.00
2023-05-05T20:26:50.886Z,14.00
2023-05-05T20:29:20.350Z,14.05
2023-05-05T20:31:48.586Z,14.09
2023-05-05T20:34:16.692Z,14.12
2023-05-05T20:36:44.420Z,14.15
2023-05-05T20:39:16.665Z,14.19
2023-05-05T20:41:46.412Z,14.19
2023-05-05T20:44:14.243Z,14.30
2023-05-05T20:46:42.081Z,14.29
2023-05-05T20:49:10.083Z,14.30
2023-05-05T20:51:38.066Z,14.32
2023-05-05T20:54:06.100Z,14.35
2023-05-05T20:56:33.735Z,14.36
2023-05-05T20:59:02.154Z,14.36
2023-05-05T21:01:30.104Z,14.38
2023-05-05T21:04:02.078Z,14.42
2023-05-05T21:06:31.115Z,14.40
2023-05-05T21:08:59.055Z,14.43
2023-05-05T21:11:26.827Z,14.53
2023-05-05T21:13:55.158Z,14.53
2023-05-05T21:16:22.998Z,14.50
2023-05-05T21:18:51.280Z,14.50
2023-05-05T21:21:19.233Z,14.45
2023-05-05T21:23:48.007Z,14.46
2023-05-05T21:26:16.178Z,14.46
2023-05-05T21:28:43.977Z,14.49
2023-05-05T21:31:21.920Z,14.49
2023-05-05T21:33:50.667Z,14.49
2023-05-05T21:36:19.725Z,14.45
2023-05-05T21:38:47.727Z,14.43
2023-05-05T21:41:15.411Z,14.36
2023-05-05T21:43:43.311Z,14.32
2023-05-05T21:46:11.274Z,14.24
2023-05-05T21:48:40.310Z,14.19
2023-05-05T21:51:08.560Z,14.14
2023-05-05T21:53:37.768Z,14.09
2023-05-05T21:56:09.520Z,14.07
2023-05-05T21:58:37.276Z,14.05
2023-05-05T22:01:05.110Z,14.01
2023-05-05T22:03:35.016Z,13.97
2023-05-05T22:06:03.126Z,13.91
2023-05-05T22:08:31.116Z,13.90
2023-05-05T22:10:58.811Z,13.88
2023-05-05T22:13:26.635Z,13.87
2023-05-05T22:15:54.307Z,13.84
2023-05-05T22:18:22.194Z,13.81
2023-05-05T22:20:50.036Z,13.78
2023-05-05T22:23:17.841Z,13.77
2023-05-05T22:25:46.669Z,13.71
2023-05-05T22:28:14.448Z,13.74
2023-05-05T22:30:42.312Z,13.74
2023-05-05T22:33:10.221Z,13.75
2023-05-05T22:35:38.709Z,13.73
2023-05-05T22:38:07.120Z,13.71
2023-05-05T22:40:35.584Z,13.71
2023-05-05T22:43:03.370Z,13.67
2023-05-05T22:45:31.623Z,13.64
2023-05-05T22:47:59.805Z,13.63
2023-05-05T22:50:27.627Z,13.63
2023-05-05T22:52:55.328Z,13.59
2023-05-05T22:55:24.910Z,13.56
2023-05-05T22:57:52.773Z,13.51
2023-05-05T23:00:20.587Z,13.50
2023-05-05T23:02:48.345Z,13.51
2023-05-05T23:05:16.166Z,13.53
2023-05-05T23:07:43.912Z,13.51
2023-05-05T23:10:11.733Z,13.53
2023-05-05T23:12:39.509Z,13.53
2023-05-05T23:15:08.376Z,13.53
2023-05-05T23:17:36.201Z,13.49
2023-05-05T23:20:04.511Z,13.46
2023-05-05T23:22:32.521Z,13.46
2023-05-05T23:25:00.776Z,13.46
2023-05-05T23:27:28.497Z,13.43
2023-05-05T23:29:56.098Z,13.43
2023-05-05T23:32:23.783Z,13.42
2023-05-05T23:34:51.561Z,13.43
2023-05-05T23:37:19.372Z,13.44
2023-05-05T23:39:47.096Z,13.43
2023-05-05T23:42:14.754Z,13.39
2023-05-05T23:44:42.422Z,13.35
2023-05-05T23:47:10.265Z,13.29
2023-05-05T23:49:38.409Z,13.20
2023-05-05T23:52:06.150Z,13.11
2023-05-05T23:54:33.887Z,13.01
2023-05-05T23:57:02.420Z,12.98
2023-05-05T23:59:30.061Z,12.93
